Time;durP1;ratioP1;P1;durP2;ratioP2;P2;SDS_P1;SDS_P2;PMS_P1;PMS_P2;Temp;Humidity;BMP_temperature;BMP_pressure;BME280_temperature;BME280_humidity;BME280_pressure;Samples;Min_cycle;Max_cycle;Signal;HPM_P1;HPM_P2
2021/12/24 00:00:54;;;;;;;;;;;6.40;99.90;;;;;;5094414;28;20051;-71
2021/12/24 00:03:21;;;;;;;100.68;22.92;;;6.40;99.90;;;;;;5094279;28;19920;-70
2021/12/24 00:05:47;;;;;;;109.70;23.63;;;6.40;99.90;;;;;;5094473;28;20130;-72
2021/12/24 00:08:13;;;;;;;105.90;25.27;;;6.40;99.90;;;;;;5094561;28;20127;-71
2021/12/24 00:10:40;;;;;;;91.45;22.17;;;6.40;99.90;;;;;;5112207;28;20448;-71
2021/12/24 00:13:13;;;;;;;89.70;22.15;;;6.40;99.90;;;;;;5078347;28;20192;-71
2021/12/24 00:18:47;;;;;;;94.05;24.10;;;6.50;99.90;;;;;;5098375;28;20044;-70
2021/12/24 00:37:05;;;;;;;89.97;22.70;;;6.70;99.90;;;;;;5116210;28;20082;-71
2021/12/24 00:39:33;;;;;;;102.43;23.25;;;6.80;99.90;;;;;;5114554;28;20101;-71
2021/12/24 00:41:58;;;;;;;77.95;20.52;;;6.80;99.90;;;;;;5115723;28;20075;-71
2021/12/24 00:44:24;;;;;;;94.32;23.35;;;6.80;99.90;;;;;;5098113;28;20408;-70
2021/12/24 00:46:50;;;;;;;95.90;22.58;;;6.90;99.90;;;;;;5097318;28;20043;-73
2021/12/24 00:49:16;;;;;;;87.95;22.05;;;6.90;99.90;;;;;;5097258;28;20131;-71
2021/12/24 00:56:58;;;;;;;76.07;19.63;;;7.00;99.90;;;;;;5115491;28;20470;-70
2021/12/24 00:59:24;;;;;;;79.50;22.45;;;6.90;99.90;;;;;;5115947;28;20119;-71
2021/12/24 01:01:50;;;;;;;74.65;20.20;;;7.00;99.90;;;;;;5115251;28;20476;-72
2021/12/24 01:04:15;;;;;;;69.20;19.40;;;7.00;99.90;;;;;;5097293;28;20044;-71
2021/12/24 01:06:41;;;;;;;73.72;19.67;;;7.00;99.90;;;;;;5097067;28;20468;-71
2021/12/24 01:09:07;;;;;;;70.97;19.20;;;7.10;99.90;;;;;;5131880;27;20140;-71
2021/12/24 01:11:33;;;;;;;75.60;20.38;;;7.10;99.90;;;;;;5096983;28;20051;-72
2021/12/24 01:13:59;;;;;;;67.28;18.60;;;7.10;99.90;;;;;;5096843;28;20149;-71
2021/12/24 01:16:37;;;;;;;56.20;17.02;;;7.10;99.90;;;;;;5115075;28;20043;-71
2021/12/24 01:19:09;;;;;;;61.95;17.52;;;7.10;99.90;;;;;;5115296;28;20044;-72
2021/12/24 01:24:08;;;;;;;71.63;19.50;;;7.20;99.90;;;;;;5114985;28;20090;-71
2021/12/24 01:26:45;;;;;;;70.13;19.33;;;7.20;99.90;;;;;;5080363;28;20044;-71
2021/12/24 01:40:18;;;;;;;62.92;16.63;;;7.30;99.90;;;;;;5114710;28;20087;-73
2021/12/24 01:42:46;;;;;;;57.88;17.60;;;7.30;99.90;;;;;;5114768;28;20107;-70
2021/12/24 01:45:24;;;;;;;57.97;16.77;;;7.40;99.90;;;;;;5080087;28;20047;-70
2021/12/24 01:47:52;;;;;;;55.15;17.65;;;7.40;99.90;;;;;;5114567;28;20440;-71
2021/12/24 01:50:19;;;;;;;52.58;16.27;;;7.40;99.90;;;;;;5096680;28;20062;-71
2021/12/24 01:52:45;;;;;;;43.83;15.10;;;7.40;99.90;;;;;;5092744;28;20066;-71
2021/12/24 01:55:11;;;;;;;53.58;16.10;;;7.40;99.90;;;;;;5076958;28;20119;-71
2021/12/24 01:57:38;;;;;;;48.28;14.40;;;7.40;99.90;;;;;;5075826;28;20441;-71
2021/12/24 02:00:06;;;;;;;44.17;14.52;;;7.40;99.90;;;;;;5093794;28;20451;-71
2021/12/24 02:02:32;;;;;;;56.83;16.08;;;7.40;99.90;;;;;;5093990;28;20054;-71
2021/12/24 02:04:58;;;;;;;51.78;15.30;;;7.50;99.90;;;;;;5093898;28;20123;-73
2021/12/24 02:07:24;;;;;;;49.33;16.13;;;7.50;99.90;;;;;;5092776;28;20127;-72
2021/12/24 02:09:50;;;;;;;58.17;15.45;;;7.60;99.90;;;;;;5093801;28;20058;-71
2021/12/24 02:12:16;;;;;;;53.25;16.67;;;7.50;99.90;;;;;;5093753;28;20083;-70
2021/12/24 02:14:47;;;;;;;49.78;15.82;;;7.60;99.90;;;;;;5093883;28;20437;-74
2021/12/24 02:17:48;;;;;;;58.15;14.98;;;7.60;99.90;;;;;;5094121;28;20393;-71
2021/12/24 02:28:38;;;;;;;40.22;12.75;;;7.70;99.90;;;;;;5092904;28;20051;-70
2021/12/24 02:31:18;;;;;;;46.55;13.90;;;7.70;99.90;;;;;;5092172;28;20435;-71
2021/12/24 02:33:44;;;;;;;52.83;14.98;;;7.70;99.90;;;;;;5092236;28;20051;-71
2021/12/24 02:36:11;;;;;;;58.70;15.95;;;7.70;99.90;;;;;;5059262;28;20178;-70
2021/12/24 02:38:38;;;;;;;53.90;15.70;;;7.70;99.90;;;;;;5075940;28;20083;-71
2021/12/24 02:41:04;;;;;;;;;;;7.70;99.90;;;;;;5075858;28;20046;-73
2021/12/24 02:43:31;;;;;;;48.47;13.50;;;7.70;99.90;;;;;;5093685;28;19920;-71
2021/12/24 02:46:06;;;;;;;48.00;14.63;;;7.80;99.90;;;;;;5091704;28;20596;-72
2021/12/24 02:54:00;;;;;;;52.30;13.73;;;7.80;99.90;;;;;;5109968;28;20110;-72
2021/12/24 02:56:33;;;;;;;40.50;12.05;;;7.80;99.90;;;;;;5113161;28;20051;-71
2021/12/24 02:59:04;;;;;;;48.30;12.93;;;7.80;99.90;;;;;;5113255;28;20039;-71
2021/12/24 03:01:36;;;;;;;49.53;13.13;;;7.80;99.90;;;;;;5129823;27;20097;-71
2021/12/24 03:04:03;;;;;;;39.85;10.52;;;7.80;99.90;;;;;;5128979;27;20104;-70
2021/12/24 03:06:32;;;;;;;43.78;10.40;;;7.80;99.90;;;;;;5128927;27;20100;-71
2021/12/24 03:08:59;;;;;;;40.05;11.25;;;7.80;99.90;;;;;;5113066;28;20347;-71
2021/12/24 03:11:25;;;;;;;38.10;10.25;;;7.90;99.90;;;;;;5094729;28;20058;-70
2021/12/24 03:13:53;;;;;;;32.17;10.05;;;7.80;99.90;;;;;;5113100;28;20047;-71
2021/12/24 03:16:20;;;;;;;36.17;9.80;;;7.90;99.90;;;;;;5095087;28;20048;-71
2021/12/24 03:18:46;;;;;;;36.22;11.05;;;8.00;99.90;;;;;;5113013;28;20060;-71
2021/12/24 03:21:28;;;;;;;38.33;10.43;;;8.00;99.90;;;;;;5077902;28;20462;-71
2021/12/24 03:26:40;;;;;;;31.65;8.57;;;8.00;99.90;;;;;;5112633;28;20054;-70
2021/12/24 03:29:09;;;;;;;36.97;10.20;;;8.00;99.90;;;;;;5113237;28;20083;-73
2021/12/24 03:31:39;;;;;;;40.05;10.00;;;8.00;99.90;;;;;;5113185;28;20082;-71
2021/12/24 03:34:08;;;;;;;36.80;9.75;;;8.10;99.90;;;;;;5113132;28;20051;-71
2021/12/24 03:36:33;;;;;;;38.85;9.95;;;8.00;99.90;;;;;;5112568;28;20046;-71
2021/12/24 03:39:00;;;;;;;30.55;9.43;;;8.00;99.90;;;;;;5128870;28;20047;-71
2021/12/24 03:41:26;;;;;;;33.83;9.30;;;8.10;99.90;;;;;;5128861;28;20126;-71
2021/12/24 03:43:52;;;;;;;32.50;9.10;;;8.10;99.90;;;;;;5094588;28;20151;-72
2021/12/24 03:46:19;;;;;;;34.10;9.10;;;8.20;99.90;;;;;;5112306;28;20134;-71
2021/12/24 03:48:51;;;;;;;28.95;9.02;;;8.30;99.90;;;;;;5129016;28;20056;-71
2021/12/24 03:56:33;;;;;;;43.55;11.63;;;8.40;99.90;;;;;;5094332;28;20105;-72
2021/12/24 03:59:00;;;;;;;49.45;14.70;;;8.40;99.90;;;;;;5112906;28;20096;-70
2021/12/24 04:01:26;;;;;;;58.03;16.20;;;8.50;99.90;;;;;;5079307;28;20368;-71
2021/12/24 04:03:52;;;;;;;63.05;16.85;;;8.50;99.90;;;;;;5133408;27;20048;-71
2021/12/24 04:06:18;;;;;;;58.60;16.73;;;8.50;99.90;;;;;;5081860;28;20214;-70
2021/12/24 04:08:44;;;;;;;60.90;16.85;;;8.50;99.90;;;;;;5098498;28;20082;-71
2021/12/24 04:11:09;;;;;;;65.43;15.77;;;8.50;99.90;;;;;;5116936;28;20044;-70
2021/12/24 04:13:35;;;;;;;63.30;16.83;;;8.50;99.90;;;;;;5116647;28;20468;-71
2021/12/24 04:16:02;;;;;;;64.55;16.75;;;8.40;99.90;;;;;;5116882;28;20048;-72
2021/12/24 04:26:23;;;;;;;80.35;20.00;;;8.50;99.90;;;;;;5116622;28;20115;-70
2021/12/24 04:28:49;;;;;;;80.20;19.50;;;8.50;99.90;;;;;;5131999;27;20047;-70
2021/12/24 04:31:16;;;;;;;68.15;16.52;;;8.40;99.90;;;;;;5080679;28;20047;-72
2021/12/24 04:33:46;;;;;;;77.63;18.83;;;8.40;99.90;;;;;;5080647;28;20059;-70
2021/12/24 04:39:25;;;;;;;82.22;20.23;;;8.40;99.90;;;;;;5116872;28;20052;-71
2021/12/24 04:53:08;;;;;;;76.80;18.40;;;8.40;99.90;;;;;;5093870;28;20134;-70
2021/12/24 05:03:46;;;;;;;79.38;19.17;;;8.40;99.90;;;;;;5094467;28;20440;-71
2021/12/24 05:09:00;;;;;;;82.10;20.92;;;8.40;99.90;;;;;;5095277;28;20121;-70
2021/12/24 05:11:26;;;;;;;77.55;19.70;;;8.40;99.90;;;;;;5094368;28;20492;-72
2021/12/24 05:13:53;;;;;;;89.05;19.58;;;8.30;99.90;;;;;;5077116;28;20058;-71
2021/12/24 05:16:26;;;;;;;95.85;20.05;;;8.30;99.90;;;;;;5095217;28;20086;-73
2021/12/24 05:21:34;;;;;;;86.80;20.83;;;8.30;99.90;;;;;;5094165;28;20143;-70
2021/12/24 05:24:06;;;;;;;94.20;22.40;;;8.40;99.90;;;;;;5095302;28;20382;-71
2021/12/24 05:26:33;;;;;;;89.65;20.02;;;8.40;99.90;;;;;;5094440;28;20472;-71
2021/12/24 05:29:00;;;;;;;87.55;19.10;;;8.40;99.90;;;;;;5094632;28;20083;-71
2021/12/24 05:31:26;;;;;;;82.25;19.70;;;8.40;99.90;;;;;;5093486;28;20069;-70
2021/12/24 05:33:52;;;;;;;80.80;18.48;;;8.30;99.90;;;;;;5095061;28;20123;-72
2021/12/24 05:36:18;;;;;;;73.88;19.58;;;8.40;99.90;;;;;;5094262;28;20123;-72
2021/12/24 05:38:46;;;;;;;86.72;18.48;;;8.30;99.90;;;;;;5094563;28;20044;-71
2021/12/24 05:41:13;;;;;;;69.55;18.90;;;8.40;99.90;;;;;;5094428;28;20044;-71
2021/12/24 05:43:40;;;;;;;74.35;19.17;;;8.40;99.90;;;;;;5095055;28;20044;-70
2021/12/24 05:46:05;;;;;;;76.93;20.10;;;8.40;99.90;;;;;;5094009;28;20036;-71
2021/12/24 05:48:31;;;;;;;80.25;21.55;;;8.40;99.90;;;;;;5092923;28;20036;-72
2021/12/24 05:50:57;;;;;;;87.18;20.38;;;8.40;99.90;;;;;;5092927;28;20126;-72
2021/12/24 05:53:25;;;;;;;85.20;18.33;;;8.40;99.90;;;;;;5092868;28;20083;-73
2021/12/24 05:55:51;;;;;;;88.05;19.08;;;8.40;99.90;;;;;;5092888;28;20055;-71
2021/12/24 05:58:17;;;;;;;87.20;18.88;;;8.40;99.90;;;;;;5076010;28;20048;-71
2021/12/24 06:00:43;;;;;;;59.20;14.77;;;8.40;99.90;;;;;;5092285;28;20464;-72
2021/12/24 06:03:10;;;;;;;79.18;17.30;;;8.40;99.90;;;;;;5094047;28;20054;-70
2021/12/24 06:05:38;;;;;;;71.10;18.20;;;8.40;99.90;;;;;;5093804;28;20048;-71
2021/12/24 06:08:04;;;;;;;;;;;8.40;99.90;;;;;;5076024;28;20040;-70
2021/12/24 06:10:31;;;;;;;65.50;16.55;;;8.40;99.90;;;;;;5126567;27;19926;-71
2021/12/24 06:12:57;;;;;;;66.05;15.77;;;8.40;99.90;;;;;;5094392;28;20048;-72
2021/12/24 06:15:25;;;;;;;75.80;17.38;;;8.30;99.90;;;;;;5092636;28;20048;-69
2021/12/24 06:17:54;;;;;;;70.82;16.67;;;8.30;99.90;;;;;;5093717;28;20052;-70
2021/12/24 06:20:21;;;;;;;62.25;17.35;;;8.30;99.90;;;;;;5092581;28;20043;-72
2021/12/24 06:22:48;;;;;;;63.50;15.55;;;8.30;99.90;;;;;;5092406;28;20048;-70
2021/12/24 06:25:15;;;;;;;55.83;14.35;;;8.30;99.90;;;;;;5091573;28;20114;-71
2021/12/24 06:27:41;;;;;;;67.68;15.75;;;8.30;99.90;;;;;;5092828;28;20044;-71
2021/12/24 06:30:07;;;;;;;63.40;16.63;;;8.30;99.90;;;;;;5092144;28;20063;-71
2021/12/24 06:32:34;;;;;;;51.85;14.93;;;8.20;99.90;;;;;;5092754;28;20040;-71
2021/12/24 06:34:59;;;;;;;53.63;13.80;;;8.20;99.90;;;;;;5092110;28;20048;-71
2021/12/24 06:37:25;;;;;;;64.30;14.10;;;8.20;99.90;;;;;;5093297;28;20043;-72
2021/12/24 06:39:51;;;;;;;70.28;16.08;;;8.20;99.90;;;;;;5093937;28;20119;-71
2021/12/24 06:42:17;;;;;;;59.55;13.43;;;8.20;99.90;;;;;;5093944;28;20047;-71
2021/12/24 06:44:43;;;;;;;54.78;15.50;;;8.20;99.90;;;;;;5092041;28;20058;-73
2021/12/24 06:47:09;;;;;;;59.17;13.57;;;8.20;99.90;;;;;;5076256;28;20043;-70
2021/12/24 06:49:35;;;;;;;66.80;15.25;;;8.20;99.90;;;;;;5075366;28;20048;-70
2021/12/24 06:52:01;;;;;;;63.92;13.80;;;8.20;99.90;;;;;;5094474;28;20548;-71
2021/12/24 06:54:27;;;;;;;68.43;14.32;;;8.20;99.90;;;;;;5114503;28;20068;-71
2021/12/24 06:56:53;;;;;;;64.47;14.45;;;8.10;99.90;;;;;;5095935;28;20052;-71
2021/12/24 06:59:19;;;;;;;64.40;14.25;;;8.10;99.90;;;;;;5129624;27;20036;-70
2021/12/24 07:01:45;;;;;;;63.93;14.90;;;8.20;99.90;;;;;;5113522;28;20059;-70
2021/12/24 07:04:11;;;;;;;55.78;13.25;;;8.20;99.90;;;;;;5095583;28;20289;-70
2021/12/24 07:06:43;;;;;;;63.92;14.05;;;8.10;99.90;;;;;;5095302;28;20043;-71
2021/12/24 07:09:09;;;;;;;50.88;12.77;;;8.20;99.90;;;;;;5096379;28;20150;-71
2021/12/24 07:11:35;;;;;;;62.75;15.27;;;8.20;99.90;;;;;;5079599;28;20119;-72
2021/12/24 07:14:00;;;;;;;59.90;11.98;;;8.20;99.90;;;;;;5095768;28;20044;-71
2021/12/24 07:16:26;;;;;;;56.15;11.93;;;8.20;99.90;;;;;;5095801;28;20039;-72
2021/12/24 07:18:52;;;;;;;52.35;12.80;;;8.20;99.90;;;;;;5113618;28;20188;-71
2021/12/24 07:21:17;;;;;;;55.10;13.45;;;8.10;99.90;;;;;;5129716;27;20119;-72
2021/12/24 07:23:43;;;;;;;52.33;13.48;;;8.10;99.90;;;;;;5078365;28;20588;-71
2021/12/24 07:26:18;;;;;;;49.60;12.00;;;8.10;99.90;;;;;;5113941;28;20127;-71
2021/12/24 07:28:43;;;;;;;50.38;12.45;;;8.10;99.90;;;;;;5095412;28;20461;-71
2021/12/24 07:31:09;;;;;;;56.80;12.32;;;8.10;99.90;;;;;;5113256;28;20055;-72
2021/12/24 07:33:35;;;;;;;65.72;12.00;;;8.10;99.90;;;;;;5079423;28;20127;-73
2021/12/24 07:36:00;;;;;;;53.67;13.52;;;8.20;99.90;;;;;;5096152;28;20051;-71
2021/12/24 07:38:26;;;;;;;48.25;11.63;;;8.10;99.90;;;;;;5115378;28;20125;-73
2021/12/24 07:40:52;;;;;;;66.10;12.60;;;8.10;99.90;;;;;;5099049;28;20050;-72
2021/12/24 07:43:18;;;;;;;44.17;11.45;;;8.10;99.90;;;;;;5100154;28;20056;-71
2021/12/24 07:45:45;;;;;;;49.47;11.45;;;8.10;99.90;;;;;;5086786;28;20066;-73
2021/12/24 07:48:13;;;;;;;44.28;10.98;;;8.00;99.90;;;;;;5135081;28;20044;-71
2021/12/24 07:53:16;;;;;;;54.67;10.73;;;8.00;99.90;;;;;;5122245;28;20055;-72
2021/12/24 07:55:43;;;;;;;47.72;10.57;;;8.10;99.90;;;;;;5121120;28;20055;-70
2021/12/24 07:58:16;;;;;;;47.42;11.23;;;8.00;99.90;;;;;;5120916;28;20043;-71
2021/12/24 08:00:43;;;;;;;48.90;10.40;;;8.00;99.90;;;;;;5082379;28;20073;-72
2021/12/24 08:03:09;;;;;;;48.53;11.13;;;8.00;99.90;;;;;;5116731;28;20051;-72
2021/12/24 08:05:39;;;;;;;52.35;9.95;;;8.00;99.90;;;;;;5117156;28;20132;-71
2021/12/24 08:08:06;;;;;;;48.03;9.43;;;8.00;99.90;;;;;;5120026;28;20048;-73
2021/12/24 08:10:34;;;;;;;45.80;10.20;;;7.90;99.90;;;;;;5133247;28;20138;-72
2021/12/24 08:13:01;;;;;;;47.92;10.23;;;7.90;99.90;;;;;;5100859;28;20082;-71
2021/12/24 08:15:27;;;;;;;;;;;8.00;99.90;;;;;;5116032;28;20093;-71
2021/12/24 08:17:53;;;;;;;51.08;8.93;;;8.00;99.90;;;;;;5100566;28;20344;-72
2021/12/24 08:20:23;;;;;;;42.05;9.30;;;7.90;99.90;;;;;;5116616;28;20087;-70
2021/12/24 08:22:50;;;;;;;36.38;8.38;;;8.00;99.90;;;;;;5133016;28;20059;-71
2021/12/24 08:25:17;;;;;;;47.33;10.00;;;8.00;99.90;;;;;;5114146;28;20518;-73
2021/12/24 08:27:43;;;;;;;43.58;9.30;;;8.00;99.90;;;;;;5096588;28;20499;-72
2021/12/24 08:30:09;;;;;;;58.25;9.82;;;8.00;99.90;;;;;;5096045;28;20059;-71
2021/12/24 08:32:38;;;;;;;41.13;10.15;;;8.00;99.90;;;;;;5115459;28;20043;-72
2021/12/24 08:35:08;;;;;;;36.00;10.07;;;8.00;99.90;;;;;;5129791;28;20091;-70
2021/12/24 08:37:34;;;;;;;44.60;10.02;;;7.90;99.90;;;;;;5062717;28;20050;-71
2021/12/24 08:40:00;;;;;;;52.88;10.13;;;8.00;99.90;;;;;;5082403;28;20055;-71
2021/12/24 08:42:26;;;;;;;39.53;9.63;;;8.00;99.90;;;;;;5130926;28;20048;-70
2021/12/24 08:44:52;;;;;;;44.42;8.10;;;7.90;99.90;;;;;;5080822;28;20051;-71
2021/12/24 08:47:18;;;;;;;42.50;8.93;;;7.90;99.90;;;;;;5098907;28;20044;-71
2021/12/24 08:49:44;;;;;;;60.63;9.77;;;7.90;99.90;;;;;;5117719;28;20051;-71
2021/12/24 08:52:10;;;;;;;42.67;9.13;;;8.00;99.90;;;;;;5100085;28;20051;-73
2021/12/24 08:54:36;;;;;;;39.80;8.45;;;8.00;99.90;;;;;;5118998;28;20059;-72
2021/12/24 08:57:02;;;;;;;53.03;10.55;;;7.90;99.90;;;;;;5117290;28;20380;-73
2021/12/24 08:59:28;;;;;;;45.10;8.15;;;7.90;99.90;;;;;;5101680;28;20051;-71
2021/12/24 09:01:54;;;;;;;40.75;8.98;;;8.00;99.90;;;;;;5098764;28;20054;-72
2021/12/24 09:04:20;;;;;;;41.65;7.82;;;8.00;99.90;;;;;;5117425;28;20210;-71
2021/12/24 09:06:46;;;;;;;43.23;7.47;;;8.00;99.90;;;;;;5097932;28;20148;-73
2021/12/24 09:09:12;;;;;;;45.90;7.72;;;8.00;99.90;;;;;;5116435;28;20701;-72
2021/12/24 09:11:41;;;;;;;46.13;7.53;;;8.00;99.90;;;;;;5115825;28;20092;-70
2021/12/24 09:14:08;;;;;;;43.90;7.95;;;8.00;99.90;;;;;;5115960;28;20069;-70
2021/12/24 09:16:36;;;;;;;51.95;7.50;;;8.00;99.90;;;;;;5114636;27;20094;-71
2021/12/24 09:19:07;;;;;;;45.55;7.55;;;8.00;99.90;;;;;;5131376;27;20043;-71
2021/12/24 09:21:34;;;;;;;44.63;7.10;;;8.10;99.90;;;;;;5097837;28;20050;-72
2021/12/24 09:24:01;;;;;;;33.88;6.07;;;8.10;99.90;;;;;;5115418;28;20165;-72
2021/12/24 09:26:28;;;;;;;40.65;7.18;;;8.10;99.90;;;;;;5097930;28;20227;-71
2021/12/24 09:28:55;;;;;;;38.83;6.75;;;8.10;99.90;;;;;;5097698;28;20382;-72
2021/12/24 09:31:20;;;;;;;38.33;6.90;;;8.20;99.90;;;;;;5080560;28;20316;-72
2021/12/24 09:33:46;;;;;;;35.50;6.32;;;8.20;99.90;;;;;;5079941;28;20657;-71
2021/12/24 09:36:12;;;;;;;36.53;6.60;;;8.20;99.90;;;;;;5080365;28;20039;-71
2021/12/24 09:38:38;;;;;;;44.80;7.15;;;8.20;99.90;;;;;;5079671;28;20452;-71
2021/12/24 09:41:03;;;;;;;40.33;7.68;;;8.20;99.90;;;;;;5114860;28;20043;-72
2021/12/24 09:43:29;;;;;;;32.60;5.68;;;8.20;99.90;;;;;;5096617;28;20039;-72
2021/12/24 09:45:55;;;;;;;35.22;6.53;;;8.20;99.90;;;;;;5130141;27;20094;-72
2021/12/24 09:48:21;;;;;;;46.55;7.25;;;8.30;99.90;;;;;;5096080;28;20040;-71
2021/12/24 09:50:47;;;;;;;38.50;7.05;;;8.30;99.90;;;;;;5079698;28;20052;-71
2021/12/24 09:53:12;;;;;;;32.45;6.47;;;8.30;99.90;;;;;;5096034;28;20090;-71
2021/12/24 09:55:39;;;;;;;44.78;6.65;;;8.30;99.90;;;;;;5095992;28;20043;-72
2021/12/24 09:58:05;;;;;;;34.50;6.97;;;8.30;99.90;;;;;;5096521;28;20437;-71
2021/12/24 10:00:32;;;;;;;32.78;7.95;;;8.20;99.90;;;;;;5062243;28;20047;-71
2021/12/24 10:02:59;;;;;;;31.17;6.43;;;8.30;99.90;;;;;;5114353;28;20059;-72
2021/12/24 10:05:35;;;;;;;29.05;6.53;;;8.30;99.90;;;;;;5114355;28;20047;-71
2021/12/24 10:08:16;;;;;;;37.15;6.68;;;8.30;99.90;;;;;;5114535;28;20046;-71
2021/12/24 10:10:44;;;;;;;27.83;6.80;;;8.30;99.90;;;;;;5096133;28;20081;-70
2021/12/24 10:13:33;;;;;;;28.70;6.85;;;8.30;99.90;;;;;;5095784;28;20070;-73
2021/12/24 10:16:25;;;;;;;36.00;6.85;;;8.40;99.90;;;;;;5078595;28;20488;-71
2021/12/24 10:18:56;;;;;;;31.50;5.82;;;8.30;99.90;;;;;;5079194;28;20047;-72
2021/12/24 10:21:24;;;;;;;33.13;6.32;;;8.30;99.90;;;;;;5130214;27;20051;-71
2021/12/24 10:24:03;;;;;;;24.75;5.80;;;8.40;99.90;;;;;;5130179;27;20593;-71
2021/12/24 10:26:35;;;;;;;31.15;6.47;;;8.30;99.90;;;;;;5095573;28;20048;-70
2021/12/24 10:29:28;;;;;;;32.85;5.90;;;8.30;99.90;;;;;;5078692;28;20128;-70
2021/12/24 10:31:57;;;;;;;34.95;7.22;;;8.30;99.90;;;;;;5095409;28;20538;-73
2021/12/24 10:34:37;;;;;;;36.75;7.47;;;8.30;99.90;;;;;;5113766;28;20364;-72
2021/12/24 10:37:23;;;;;;;31.38;6.05;;;8.30;99.90;;;;;;5129482;27;20051;-72
2021/12/24 10:39:58;;;;;;;26.70;5.93;;;8.30;99.90;;;;;;5114639;28;20152;-72
2021/12/24 10:42:36;;;;;;;35.70;6.10;;;8.30;99.90;;;;;;5130268;27;20438;-72
2021/12/24 10:45:14;;;;;;;35.40;5.95;;;8.30;99.90;;;;;;5113405;28;20044;-71
2021/12/24 10:47:41;;;;;;;36.63;7.05;;;8.30;99.90;;;;;;5095344;28;20042;-70
2021/12/24 10:50:32;;;;;;;33.45;6.38;;;8.30;99.90;;;;;;5113436;28;20052;-71
2021/12/24 10:55:57;;;;;;;34.33;6.68;;;8.30;99.90;;;;;;5113702;28;20062;-71
2021/12/24 10:58:26;;;;;;;28.40;6.00;;;8.30;99.90;;;;;;5095983;28;20498;-72
2021/12/24 11:00:57;;;;;;;31.10;5.50;;;8.40;99.90;;;;;;5113110;28;20101;-71
2021/12/24 11:03:31;;;;;;;40.67;8.20;;;8.40;99.90;;;;;;5078818;28;20126;-72
2021/12/24 11:06:09;;;;;;;36.10;5.93;;;8.30;99.90;;;;;;5112846;28;20213;-73
2021/12/24 11:08:36;;;;;;;31.42;6.20;;;8.40;99.90;;;;;;5113405;28;20040;-71
2021/12/24 11:11:05;;;;;;;30.33;7.00;;;8.40;99.90;;;;;;5095041;28;20043;-72
2021/12/24 11:13:39;;;;;;;32.65;6.05;;;8.40;99.90;;;;;;5094653;28;20047;-72
2021/12/24 11:16:08;;;;;;;30.60;6.60;;;8.50;99.90;;;;;;5112743;28;20044;-71
2021/12/24 11:18:38;;;;;;;37.88;6.70;;;8.40;99.90;;;;;;5113066;28;20048;-73
2021/12/24 11:21:10;;;;;;;33.55;6.45;;;8.40;99.90;;;;;;5094530;28;20055;-72
2021/12/24 11:23:38;;;;;;;33.70;6.00;;;8.50;99.90;;;;;;5113055;28;20173;-72
2021/12/24 11:26:12;;;;;;;34.25;6.85;;;8.50;99.90;;;;;;5112852;28;20058;-71
2021/12/24 11:28:39;;;;;;;28.90;6.70;;;8.40;99.90;;;;;;5113094;28;20098;-71
2021/12/24 11:31:08;;;;;;;35.33;6.32;;;8.40;99.90;;;;;;5112884;28;20047;-71
2021/12/24 11:33:36;;;;;;;29.40;6.40;;;8.40;99.90;;;;;;5112846;28;20083;-71
2021/12/24 11:36:06;;;;;;;36.05;7.70;;;8.40;99.90;;;;;;5113155;28;20087;-75
2021/12/24 11:38:36;;;;;;;32.53;7.47;;;8.40;99.90;;;;;;5112865;28;20046;-71
2021/12/24 11:41:05;;;;;;;29.23;6.68;;;8.40;99.90;;;;;;5094449;28;20073;-73
2021/12/24 11:43:34;;;;;;;30.42;6.80;;;8.40;99.90;;;;;;5112692;28;20460;-70
2021/12/24 11:46:03;;;;;;;34.80;7.57;;;8.40;99.90;;;;;;5128643;28;20044;-70
2021/12/24 11:48:33;;;;;;;33.17;7.93;;;8.40;99.90;;;;;;5128381;28;20048;-71
2021/12/24 11:51:01;;;;;;;32.83;6.47;;;8.30;99.90;;;;;;5113319;28;20136;-71
2021/12/24 11:53:30;;;;;;;30.60;6.45;;;8.40;99.90;;;;;;5093930;28;20055;-70
2021/12/24 11:56:04;;;;;;;28.98;5.90;;;8.30;99.90;;;;;;5096743;28;20075;-70
2021/12/24 11:58:32;;;;;;;33.22;6.70;;;8.30;99.90;;;;;;5094897;28;20059;-71
2021/12/24 12:01:03;;;;;;;23.95;5.40;;;8.20;99.90;;;;;;5078196;28;20476;-72
2021/12/24 12:03:49;;;;;;;24.70;5.60;;;8.20;99.90;;;;;;5112369;28;20198;-71
2021/12/24 12:06:20;;;;;;;24.48;6.47;;;8.10;99.90;;;;;;5112588;28;20491;-71
2021/12/24 12:08:48;;;;;;;23.80;6.90;;;8.10;99.90;;;;;;5112800;28;20153;-72
2021/12/24 12:11:14;;;;;;;16.27;5.03;;;8.00;99.90;;;;;;5077782;28;20054;-74
2021/12/24 12:13:47;;;;;;;11.65;4.43;;;7.90;99.90;;;;;;5077945;28;20464;-73
2021/12/24 12:16:16;;;;;;;3.30;1.10;;;7.70;99.90;;;;;;5128784;28;20047;-71
2021/12/24 12:18:48;;;;;;;2.72;0.70;;;7.60;99.90;;;;;;5093707;28;20581;-71
2021/12/24 12:21:36;;;;;;;3.63;1.17;;;7.20;99.90;;;;;;5094171;28;20040;-71
2021/12/24 12:26:35;;;;;;;3.58;1.58;;;6.70;99.90;;;;;;5116178;28;20115;-72
2021/12/24 12:29:29;;;;;;;3.58;1.48;;;6.70;99.90;;;;;;5097730;28;20056;-71
2021/12/24 12:32:03;;;;;;;4.18;1.88;;;6.70;99.90;;;;;;5115977;28;20051;-72
2021/12/24 12:34:41;;;;;;;3.97;1.90;;;6.60;99.90;;;;;;5115691;28;20434;-71
2021/12/24 12:37:47;;;;;;;4.32;1.63;;;6.70;99.90;;;;;;5114524;28;20040;-72
2021/12/24 12:40:16;;;;;;;6.07;2.22;;;6.70;99.90;;;;;;5058280;28;20056;-71
2021/12/24 12:42:56;;;;;;;4.43;1.80;;;6.70;99.90;;;;;;5115831;28;20079;-71
2021/12/24 12:45:41;;;;;;;4.65;1.85;;;6.70;99.90;;;;;;5097407;28;20139;-71
2021/12/24 12:48:13;;;;;;;6.35;2.20;;;6.70;99.90;;;;;;5097875;28;20073;-72
2021/12/24 12:50:50;;;;;;;5.18;2.25;;;6.70;99.90;;;;;;5097822;28;20051;-73
2021/12/24 12:53:26;;;;;;;5.20;2.95;;;6.70;99.90;;;;;;5116033;28;20098;-72
2021/12/24 12:56:30;;;;;;;4.78;2.38;;;6.60;99.90;;;;;;5116157;28;20056;-71
2021/12/24 12:59:07;;;;;;;5.20;2.50;;;6.70;99.90;;;;;;5097712;28;20138;-71
2021/12/24 13:01:48;;;;;;;5.77;2.90;;;6.60;99.90;;;;;;5131281;27;20105;-71
2021/12/24 13:04:15;;;;;;;5.93;3.10;;;6.60;99.90;;;;;;5131202;27;20044;-72
2021/12/24 13:06:41;;;;;;;6.47;3.60;;;6.50;99.90;;;;;;5132261;28;20178;-72
2021/12/24 13:09:10;;;;;;;9.15;2.78;;;6.40;99.90;;;;;;5113539;28;20055;-73
2021/12/24 13:11:41;;;;;;;6.72;3.25;;;6.50;99.90;;;;;;5129377;28;20079;-73
2021/12/24 13:14:07;;;;;;;6.13;3.40;;;6.50;99.90;;;;;;5125998;28;20150;-70
2021/12/24 13:16:51;;;;;;;6.28;2.90;;;6.50;99.90;;;;;;5107243;28;20047;-72
2021/12/24 13:24:48;;;;;;;5.82;3.40;;;6.40;99.90;;;;;;5106690;28;20483;-72
2021/12/24 13:27:15;;;;;;;7.70;3.97;;;6.50;99.90;;;;;;5107357;28;20048;-72
2021/12/24 13:29:41;;;;;;;6.75;3.83;;;6.40;99.90;;;;;;5141806;27;20082;-70
2021/12/24 13:32:07;;;;;;;6.47;3.60;;;6.50;99.90;;;;;;5108061;28;20044;-71
2021/12/24 13:34:33;;;;;;;8.80;4.93;;;6.50;99.90;;;;;;5125890;28;20126;-71
2021/12/24 13:37:01;;;;;;;8.63;4.72;;;6.50;99.90;;;;;;5090798;28;20056;-70
2021/12/24 13:39:28;;;;;;;9.20;4.78;;;6.40;99.90;;;;;;5141924;27;20047;-71
2021/12/24 13:42:07;;;;;;;9.15;5.45;;;6.40;99.90;;;;;;5126821;28;20096;-71
2021/12/24 13:44:34;;;;;;;8.82;4.88;;;6.40;99.90;;;;;;5110625;28;20051;-71
2021/12/24 13:47:45;;;;;;;8.90;5.05;;;6.50;99.90;;;;;;5112501;28;20043;-71
2021/12/24 13:55:36;;;;;;;7.45;4.70;;;6.40;99.90;;;;;;5128787;28;20192;-72
2021/12/24 13:58:09;;;;;;;9.13;5.15;;;6.40;99.90;;;;;;5129141;28;20044;-70
2021/12/24 14:00:37;;;;;;;8.80;5.10;;;6.40;99.90;;;;;;5128096;28;20102;-72
2021/12/24 14:03:07;;;;;;;8.05;4.55;;;6.40;99.90;;;;;;5091782;28;20063;-72
2021/12/24 14:05:40;;;;;;;7.95;4.05;;;6.50;99.90;;;;;;5142231;27;20048;-72
2021/12/24 14:08:12;;;;;;;9.18;4.60;;;6.40;99.90;;;;;;5109743;28;20142;-72
2021/12/24 14:10:40;;;;;;;8.82;4.85;;;6.40;99.90;;;;;;5108790;28;20119;-70
2021/12/24 14:13:12;;;;;;;9.88;4.50;;;6.40;99.90;;;;;;5109242;28;20056;-73
2021/12/24 14:15:51;;;;;;;7.40;4.00;;;6.30;99.90;;;;;;5143793;27;20044;-73
2021/12/24 14:19:13;;;;;;;9.00;4.60;;;6.30;99.90;;;;;;5109031;28;20052;-71
2021/12/24 14:24:26;;;;;;;8.30;3.85;;;6.30;99.90;;;;;;5106253;28;20071;-72
2021/12/24 14:27:04;;;;;;;7.72;3.25;;;6.40;99.90;;;;;;5123743;28;20134;-72
2021/12/24 14:29:35;;;;;;;7.28;3.50;;;6.30;99.90;;;;;;5121133;27;20047;-72
2021/12/24 14:32:11;;;;;;;5.93;2.78;;;6.40;99.90;;;;;;5106140;28;20047;-70
2021/12/24 14:34:44;;;;;;;5.22;2.55;;;6.20;99.90;;;;;;5140183;27;20051;-72
2021/12/24 14:37:20;;;;;;;6.65;3.13;;;6.30;99.90;;;;;;5141298;27;20047;-73
2021/12/24 14:39:53;;;;;;;8.05;3.88;;;6.30;99.90;;;;;;5072529;28;20085;-72
2021/12/24 14:42:22;;;;;;;7.10;3.42;;;6.30;99.90;;;;;;5124422;28;20455;-72
2021/12/24 14:44:52;;;;;;;5.28;2.28;;;6.20;99.90;;;;;;5123354;28;20058;-72
2021/12/24 14:47:21;;;;;;;6.28;2.95;;;6.20;99.90;;;;;;5123452;28;20141;-71
2021/12/24 14:49:47;;;;;;;7.78;3.13;;;6.20;99.90;;;;;;5121380;28;20048;-71
2021/12/24 14:52:25;;;;;;;7.65;3.38;;;6.20;99.90;;;;;;5138847;27;20074;-71
2021/12/24 14:55:06;;;;;;;8.13;3.00;;;6.10;99.90;;;;;;5104735;28;20138;-71